sensor_id;sensor_type;location;lat;lon;timestamp;temperature;humidity
21473;DHT22;10898;48.072;11.682;2022-10-26T00:00:50;10.60;99.90
21473;DHT22;10898;48.072;11.682;2022-10-26T00:02:53;10.70;99.90
21473;DHT22;10898;48.072;11.682;2022-10-26T00:04:55;10.70;99.90
21473;DHT22;10898;48.072;11.682;2022-10-26T00:06:57;10.70;99.90
21473;DHT22;10898;48.072;11.682;2022-10-26T00:08:58;10.80;99.90
21473;DHT22;10898;48.072;11.682;2022-10-26T00:11:00;10.80;99.90
21473;DHT22;10898;48.072;11.682;2022-10-26T00:13:02;10.80;99.90
21473;DHT22;10898;48.072;11.682;2022-10-26T00:15:04;10.80;99.90
21473;DHT22;10898;48.072;11.682;2022-10-26T00:17:06;10.80;99.90
21473;DHT22;10898;48.072;11.682;2022-10-26T00:19:08;10.90;99.90
21473;DHT22;10898;48.072;11.682;2022-10-26T00:21:09;10.90;99.90
21473;DHT22;10898;48.072;11.682;2022-10-26T00:23:11;10.90;99.90
21473;DHT22;10898;48.072;11.682;2022-10-26T00:25:13;11.00;99.90
21473;DHT22;10898;48.072;11.682;2022-10-26T00:27:15;10.90;99.90
21473;DHT22;10898;48.072;11.682;2022-10-26T00:29:16;11.00;99.90
21473;DHT22;10898;48.072;11.682;2022-10-26T00:31:18;11.00;99.90
21473;DHT22;10898;48.072;11.682;2022-10-26T00:33:20;11.00;99.90
21473;DHT22;10898;48.072;11.682;2022-10-26T00:35:22;11.00;99.90
21473;DHT22;10898;48.072;11.682;2022-10-26T00:37:44;11.00;99.90
21473;DHT22;10898;48.072;11.682;2022-10-26T00:39:45;11.10;99.90
21473;DHT22;10898;48.072;11.682;2022-10-26T00:41:47;11.10;99.90
21473;DHT22;10898;48.072;11.682;2022-10-26T00:43:50;11.10;99.90
21473;DHT22;10898;48.072;11.682;2022-10-26T00:45:52;11.10;99.90
21473;DHT22;10898;48.072;11.682;2022-10-26T00:49:56;11.20;99.90
21473;DHT22;10898;48.072;11.682;2022-10-26T00:52:00;11.10;99.90
21473;DHT22;10898;48.072;11.682;2022-10-26T00:54:03;11.20;99.90
21473;DHT22;10898;48.072;11.682;2022-10-26T00:56:05;11.20;99.90
21473;DHT22;10898;48.072;11.682;2022-10-26T00:58:07;11.20;99.90
21473;DHT22;10898;48.072;11.682;2022-10-26T01:00:10;11.20;99.90
21473;DHT22;10898;48.072;11.682;2022-10-26T01:02:12;11.20;99.90
21473;DHT22;10898;48.072;11.682;2022-10-26T01:04:14;11.20;99.90
21473;DHT22;10898;48.072;11.682;2022-10-26T01:06:16;11.20;99.90
21473;DHT22;10898;48.072;11.682;2022-10-26T01:08:17;11.30;99.90
21473;DHT22;10898;48.072;11.682;2022-10-26T01:10:19;11.30;99.90
21473;DHT22;10898;48.072;11.682;2022-10-26T01:12:21;11.30;99.90
21473;DHT22;10898;48.072;11.682;2022-10-26T01:14:23;11.30;99.90
21473;DHT22;10898;48.072;11.682;2022-10-26T01:18:37;11.30;99.90
21473;DHT22;10898;48.072;11.682;2022-10-26T01:25:20;11.30;99.90
21473;DHT22;10898;48.072;11.682;2022-10-26T01:31:49;11.30;99.90
21473;DHT22;10898;48.072;11.682;2022-10-26T01:33:55;11.40;99.90
21473;DHT22;10898;48.072;11.682;2022-10-26T01:36:24;11.30;99.90
21473;DHT22;10898;48.072;11.682;2022-10-26T01:40:53;11.40;99.90
21473;DHT22;10898;48.072;11.682;2022-10-26T01:42:58;11.40;99.90
21473;DHT22;10898;48.072;11.682;2022-10-26T01:45:03;11.50;99.90
21473;DHT22;10898;48.072;11.682;2022-10-26T01:47:07;11.50;99.90
21473;DHT22;10898;48.072;11.682;2022-10-26T01:49:10;11.50;99.90
21473;DHT22;10898;48.072;11.682;2022-10-26T01:51:12;11.50;99.90
21473;DHT22;10898;48.072;11.682;2022-10-26T01:53:14;11.50;99.90
21473;DHT22;10898;48.072;11.682;2022-10-26T01:57:36;11.50;99.90
21473;DHT22;10898;48.072;11.682;2022-10-26T02:06:15;11.50;99.90
21473;DHT22;10898;48.072;11.682;2022-10-26T02:12:23;11.50;99.90
21473;DHT22;10898;48.072;11.682;2022-10-26T02:16:39;11.50;99.90
21473;DHT22;10898;48.072;11.682;2022-10-26T02:21:07;11.60;99.90
21473;DHT22;10898;48.072;11.682;2022-10-26T02:23:10;11.60;99.90
21473;DHT22;10898;48.072;11.682;2022-10-26T02:25:15;11.60;99.90
21473;DHT22;10898;48.072;11.682;2022-10-26T02:27:25;11.60;99.90
21473;DHT22;10898;48.072;11.682;2022-10-26T02:29:27;11.60;99.90
21473;DHT22;10898;48.072;11.682;2022-10-26T02:31:29;11.60;99.90
21473;DHT22;10898;48.072;11.682;2022-10-26T02:33:34;11.60;99.90
21473;DHT22;10898;48.072;11.682;2022-10-26T02:35:37;11.60;99.90
21473;DHT22;10898;48.072;11.682;2022-10-26T02:37:40;11.60;99.90
21473;DHT22;10898;48.072;11.682;2022-10-26T02:39:42;11.60;99.90
21473;DHT22;10898;48.072;11.682;2022-10-26T02:41:45;11.60;99.90
21473;DHT22;10898;48.072;11.682;2022-10-26T02:43:59;11.60;99.90
21473;DHT22;10898;48.072;11.682;2022-10-26T02:46:07;11.60;99.90
21473;DHT22;10898;48.072;11.682;2022-10-26T02:48:09;11.60;99.90
21473;DHT22;10898;48.072;11.682;2022-10-26T02:50:11;11.80;99.90
21473;DHT22;10898;48.072;11.682;2022-10-26T02:56:59;11.60;99.90
21473;DHT22;10898;48.072;11.682;2022-10-26T02:59:02;11.70;99.90
21473;DHT22;10898;48.072;11.682;2022-10-26T03:01:04;11.70;99.90
21473;DHT22;10898;48.072;11.682;2022-10-26T03:03:07;11.70;99.90
21473;DHT22;10898;48.072;11.682;2022-10-26T03:05:13;11.70;99.90
21473;DHT22;10898;48.072;11.682;2022-10-26T03:07:20;11.70;99.90
21473;DHT22;10898;48.072;11.682;2022-10-26T03:09:21;11.70;99.90
21473;DHT22;10898;48.072;11.682;2022-10-26T03:11:26;11.70;99.90
21473;DHT22;10898;48.072;11.682;2022-10-26T03:13:27;11.70;99.90
21473;DHT22;10898;48.072;11.682;2022-10-26T03:15:29;11.70;99.90
21473;DHT22;10898;48.072;11.682;2022-10-26T03:17:31;11.70;99.90
21473;DHT22;10898;48.072;11.682;2022-10-26T03:19:32;11.70;99.90
21473;DHT22;10898;48.072;11.682;2022-10-26T03:21:34;11.70;99.90
21473;DHT22;10898;48.072;11.682;2022-10-26T03:23:36;11.70;99.90
21473;DHT22;10898;48.072;11.682;2022-10-26T03:25:37;11.70;99.90
21473;DHT22;10898;48.072;11.682;2022-10-26T03:27:39;11.80;99.90
21473;DHT22;10898;48.072;11.682;2022-10-26T03:29:41;11.80;99.90
21473;DHT22;10898;48.072;11.682;2022-10-26T03:31:42;11.80;99.90
21473;DHT22;10898;48.072;11.682;2022-10-26T03:33:44;11.80;99.90
21473;DHT22;10898;48.072;11.682;2022-10-26T03:35:45;11.80;99.90
21473;DHT22;10898;48.072;11.682;2022-10-26T03:37:47;11.80;99.90
21473;DHT22;10898;48.072;11.682;2022-10-26T03:39:49;11.80;99.90
21473;DHT22;10898;48.072;11.682;2022-10-26T03:41:51;11.80;99.90
21473;DHT22;10898;48.072;11.682;2022-10-26T03:43:57;11.80;99.90
21473;DHT22;10898;48.072;11.682;2022-10-26T03:45:59;11.80;99.90
21473;DHT22;10898;48.072;11.682;2022-10-26T03:48:01;11.90;99.90
21473;DHT22;10898;48.072;11.682;2022-10-26T03:50:02;11.90;99.90
21473;DHT22;10898;48.072;11.682;2022-10-26T03:52:09;11.90;99.90
21473;DHT22;10898;48.072;11.682;2022-10-26T03:54:11;11.90;99.90
21473;DHT22;10898;48.072;11.682;2022-10-26T03:56:12;11.90;99.90
21473;DHT22;10898;48.072;11.682;2022-10-26T03:58:14;11.90;99.90
21473;DHT22;10898;48.072;11.682;2022-10-26T04:00:16;11.90;99.90
21473;DHT22;10898;48.072;11.682;2022-10-26T04:02:18;11.90;99.90
21473;DHT22;10898;48.072;11.682;2022-10-26T04:04:19;11.90;99.90
21473;DHT22;10898;48.072;11.682;2022-10-26T04:06:21;12.00;99.90
21473;DHT22;10898;48.072;11.682;2022-10-26T04:08:23;12.00;99.90
21473;DHT22;10898;48.072;11.682;2022-10-26T04:10:25;12.00;99.90
21473;DHT22;10898;48.072;11.682;2022-10-26T04:12:28;12.00;99.90
21473;DHT22;10898;48.072;11.682;2022-10-26T04:14:29;12.00;99.90
21473;DHT22;10898;48.072;11.682;2022-10-26T04:16:31;12.00;99.90
21473;DHT22;10898;48.072;11.682;2022-10-26T04:18:34;12.00;99.90
21473;DHT22;10898;48.072;11.682;2022-10-26T04:20:35;12.00;99.90
21473;DHT22;10898;48.072;11.682;2022-10-26T04:22:39;12.00;99.90
21473;DHT22;10898;48.072;11.682;2022-10-26T04:24:41;12.00;99.90
21473;DHT22;10898;48.072;11.682;2022-10-26T04:26:42;12.00;99.90
21473;DHT22;10898;48.072;11.682;2022-10-26T04:28:45;12.10;99.90
21473;DHT22;10898;48.072;11.682;2022-10-26T04:30:47;12.10;99.90
21473;DHT22;10898;48.072;11.682;2022-10-26T04:32:48;12.10;99.90
21473;DHT22;10898;48.072;11.682;2022-10-26T04:34:51;12.10;99.90
21473;DHT22;10898;48.072;11.682;2022-10-26T04:36:54;12.10;99.90
21473;DHT22;10898;48.072;11.682;2022-10-26T04:38:56;12.10;99.90
21473;DHT22;10898;48.072;11.682;2022-10-26T04:40:58;12.10;99.90
21473;DHT22;10898;48.072;11.682;2022-10-26T04:42:59;12.10;99.90
21473;DHT22;10898;48.072;11.682;2022-10-26T04:45:01;12.10;99.90
21473;DHT22;10898;48.072;11.682;2022-10-26T04:47:03;12.20;99.90
21473;DHT22;10898;48.072;11.682;2022-10-26T04:49:05;12.20;99.90
21473;DHT22;10898;48.072;11.682;2022-10-26T04:51:06;12.20;99.90
21473;DHT22;10898;48.072;11.682;2022-10-26T04:53:08;12.10;99.90
21473;DHT22;10898;48.072;11.682;2022-10-26T04:55:10;12.20;99.90
21473;DHT22;10898;48.072;11.682;2022-10-26T04:57:11;12.20;99.90
21473;DHT22;10898;48.072;11.682;2022-10-26T04:59:13;12.20;99.90
21473;DHT22;10898;48.072;11.682;2022-10-26T05:01:15;12.20;99.90
21473;DHT22;10898;48.072;11.682;2022-10-26T05:03:17;12.20;99.90
21473;DHT22;10898;48.072;11.682;2022-10-26T05:05:18;12.20;99.90
21473;DHT22;10898;48.072;11.682;2022-10-26T05:07:20;12.20;99.90
21473;DHT22;10898;48.072;11.682;2022-10-26T05:09:22;12.20;99.90
21473;DHT22;10898;48.072;11.682;2022-10-26T05:11:23;12.20;99.90
21473;DHT22;10898;48.072;11.682;2022-10-26T05:13:25;12.20;99.90
21473;DHT22;10898;48.072;11.682;2022-10-26T05:15:28;12.30;99.90
21473;DHT22;10898;48.072;11.682;2022-10-26T05:17:29;12.30;99.90
21473;DHT22;10898;48.072;11.682;2022-10-26T05:19:31;12.30;99.90
21473;DHT22;10898;48.072;11.682;2022-10-26T05:21:33;12.30;99.90
21473;DHT22;10898;48.072;11.682;2022-10-26T05:23:34;12.30;99.90
21473;DHT22;10898;48.072;11.682;2022-10-26T05:25:36;12.30;99.90
21473;DHT22;10898;48.072;11.682;2022-10-26T05:27:38;12.40;99.90
21473;DHT22;10898;48.072;11.682;2022-10-26T05:29:40;12.40;99.90
21473;DHT22;10898;48.072;11.682;2022-10-26T05:31:42;12.50;99.90
21473;DHT22;10898;48.072;11.682;2022-10-26T05:33:43;12.50;99.90
21473;DHT22;10898;48.072;11.682;2022-10-26T05:35:45;12.50;99.90
21473;DHT22;10898;48.072;11.682;2022-10-26T05:37:47;12.60;99.90
21473;DHT22;10898;48.072;11.682;2022-10-26T05:39:48;12.60;99.90
21473;DHT22;10898;48.072;11.682;2022-10-26T05:41:50;12.60;99.90
21473;DHT22;10898;48.072;11.682;2022-10-26T05:43:52;12.60;99.90
21473;DHT22;10898;48.072;11.682;2022-10-26T05:45:53;12.60;99.90
21473;DHT22;10898;48.072;11.682;2022-10-26T05:47:55;12.60;99.90
21473;DHT22;10898;48.072;11.682;2022-10-26T05:50:03;12.60;99.90
21473;DHT22;10898;48.072;11.682;2022-10-26T05:52:04;12.60;99.90
21473;DHT22;10898;48.072;11.682;2022-10-26T05:54:06;12.60;99.90
21473;DHT22;10898;48.072;11.682;2022-10-26T05:56:16;12.60;99.90
21473;DHT22;10898;48.072;11.682;2022-10-26T05:58:19;12.60;99.90
21473;DHT22;10898;48.072;11.682;2022-10-26T06:00:22;12.60;99.90
21473;DHT22;10898;48.072;11.682;2022-10-26T06:04:32;12.60;99.90
21473;DHT22;10898;48.072;11.682;2022-10-26T06:06:39;12.60;99.90
21473;DHT22;10898;48.072;11.682;2022-10-26T06:08:42;12.60;99.90
21473;DHT22;10898;48.072;11.682;2022-10-26T06:10:44;12.60;99.90
21473;DHT22;10898;48.072;11.682;2022-10-26T06:12:46;12.60;99.90
21473;DHT22;10898;48.072;11.682;2022-10-26T06:14:48;12.60;99.90
21473;DHT22;10898;48.072;11.682;2022-10-26T06:21:55;12.60;99.90
21473;DHT22;10898;48.072;11.682;2022-10-26T06:26:01;12.70;99.90
21473;DHT22;10898;48.072;11.682;2022-10-26T06:28:18;12.70;99.90
21473;DHT22;10898;48.072;11.682;2022-10-26T06:30:21;12.70;99.90
21473;DHT22;10898;48.072;11.682;2022-10-26T06:32:23;12.70;99.90
21473;DHT22;10898;48.072;11.682;2022-10-26T06:34:26;12.80;99.90
21473;DHT22;10898;48.072;11.682;2022-10-26T06:36:29;12.80;99.90
21473;DHT22;10898;48.072;11.682;2022-10-26T06:38:31;12.80;99.90
21473;DHT22;10898;48.072;11.682;2022-10-26T06:40:36;12.80;99.90
21473;DHT22;10898;48.072;11.682;2022-10-26T06:42:38;12.80;99.90
21473;DHT22;10898;48.072;11.682;2022-10-26T06:44:40;12.80;99.90
21473;DHT22;10898;48.072;11.682;2022-10-26T06:46:45;12.80;99.90
21473;DHT22;10898;48.072;11.682;2022-10-26T06:48:53;12.80;99.90
21473;DHT22;10898;48.072;11.682;2022-10-26T06:50:57;12.80;99.90
21473;DHT22;10898;48.072;11.682;2022-10-26T06:53:09;12.80;99.90
21473;DHT22;10898;48.072;11.682;2022-10-26T06:55:16;12.90;99.90
21473;DHT22;10898;48.072;11.682;2022-10-26T06:57:18;12.90;99.90
21473;DHT22;10898;48.072;11.682;2022-10-26T06:59:36;12.90;99.90
21473;DHT22;10898;48.072;11.682;2022-10-26T07:01:39;12.90;99.90
21473;DHT22;10898;48.072;11.682;2022-10-26T07:03:41;13.00;99.90
21473;DHT22;10898;48.072;11.682;2022-10-26T07:05:43;13.00;99.90
21473;DHT22;10898;48.072;11.682;2022-10-26T07:07:45;13.00;99.90
21473;DHT22;10898;48.072;11.682;2022-10-26T07:09:48;13.00;99.90
21473;DHT22;10898;48.072;11.682;2022-10-26T07:11:50;13.10;99.90
21473;DHT22;10898;48.072;11.682;2022-10-26T07:13:52;13.10;99.90
21473;DHT22;10898;48.072;11.682;2022-10-26T07:15:53;13.10;99.90
21473;DHT22;10898;48.072;11.682;2022-10-26T07:17:55;13.20;99.90
21473;DHT22;10898;48.072;11.682;2022-10-26T07:19:57;13.20;99.90
21473;DHT22;10898;48.072;11.682;2022-10-26T07:21:58;13.20;99.90
21473;DHT22;10898;48.072;11.682;2022-10-26T07:24:00;13.20;99.90
21473;DHT22;10898;48.072;11.682;2022-10-26T07:26:02;13.20;99.90
21473;DHT22;10898;48.072;11.682;2022-10-26T07:28:04;13.20;99.90
21473;DHT22;10898;48.072;11.682;2022-10-26T07:30:06;13.30;99.90
21473;DHT22;10898;48.072;11.682;2022-10-26T07:32:08;13.20;99.90
21473;DHT22;10898;48.072;11.682;2022-10-26T07:34:10;13.30;99.90
21473;DHT22;10898;48.072;11.682;2022-10-26T07:36:12;13.30;99.90
21473;DHT22;10898;48.072;11.682;2022-10-26T07:38:13;13.30;99.90
21473;DHT22;10898;48.072;11.682;2022-10-26T07:40:15;13.30;99.90
21473;DHT22;10898;48.072;11.682;2022-10-26T07:42:17;13.30;99.90
21473;DHT22;10898;48.072;11.682;2022-10-26T07:44:19;13.40;99.90
21473;DHT22;10898;48.072;11.682;2022-10-26T07:46:21;13.40;99.90
21473;DHT22;10898;48.072;11.682;2022-10-26T07:48:22;13.40;99.90
21473;DHT22;10898;48.072;11.682;2022-10-26T07:50:24;13.40;99.90
21473;DHT22;10898;48.072;11.682;2022-10-26T07:52:26;13.50;99.90
21473;DHT22;10898;48.072;11.682;2022-10-26T07:54:28;13.50;99.90
21473;DHT22;10898;48.072;11.682;2022-10-26T07:56:29;13.50;99.90
21473;DHT22;10898;48.072;11.682;2022-10-26T07:58:32;13.50;99.90
21473;DHT22;10898;48.072;11.682;2022-10-26T08:00:33;13.50;99.90
21473;DHT22;10898;48.072;11.682;2022-10-26T08:02:35;13.50;99.90
21473;DHT22;10898;48.072;11.682;2022-10-26T08:04:37;13.60;99.90
21473;DHT22;10898;48.072;11.682;2022-10-26T08:06:39;13.60;99.90
21473;DHT22;10898;48.072;11.682;2022-10-26T08:08:41;13.60;99.90
21473;DHT22;10898;48.072;11.682;2022-10-26T08:10:47;13.60;99.90
21473;DHT22;10898;48.072;11.682;2022-10-26T08:12:51;13.60;99.90
21473;DHT22;10898;48.072;11.682;2022-10-26T08:14:52;13.70;99.90
21473;DHT22;10898;48.072;11.682;2022-10-26T08:16:54;13.70;99.90
21473;DHT22;10898;48.072;11.682;2022-10-26T08:18:56;13.70;99.90
21473;DHT22;10898;48.072;11.682;2022-10-26T08:21:02;13.70;99.90
21473;DHT22;10898;48.072;11.682;2022-10-26T08:23:12;13.70;99.90
21473;DHT22;10898;48.072;11.682;2022-10-26T08:25:13;13.70;99.90
21473;DHT22;10898;48.072;11.682;2022-10-26T08:27:20;13.80;99.90
21473;DHT22;10898;48.072;11.682;2022-10-26T08:29:22;13.80;99.90
21473;DHT22;10898;48.072;11.682;2022-10-26T08:31:24;13.80;99.90
21473;DHT22;10898;48.072;11.682;2022-10-26T08:33:26;13.90;99.90
21473;DHT22;10898;48.072;11.682;2022-10-26T08:35:27;14.00;99.90
21473;DHT22;10898;48.072;11.682;2022-10-26T08:37:29;14.00;99.90
21473;DHT22;10898;48.072;11.682;2022-10-26T08:39:31;14.00;99.90
21473;DHT22;10898;48.072;11.682;2022-10-26T08:41:40;14.10;99.90
21473;DHT22;10898;48.072;11.682;2022-10-26T08:43:51;14.20;99.90
21473;DHT22;10898;48.072;11.682;2022-10-26T08:47:55;14.40;99.90
21473;DHT22;10898;48.072;11.682;2022-10-26T08:52:00;14.50;99.90
21473;DHT22;10898;48.072;11.682;2022-10-26T08:54:04;14.50;99.90
21473;DHT22;10898;48.072;11.682;2022-10-26T08:58:58;14.60;99.90
21473;DHT22;10898;48.072;11.682;2022-10-26T09:01:01;14.70;99.90
21473;DHT22;10898;48.072;11.682;2022-10-26T09:03:08;14.70;99.90
21473;DHT22;10898;48.072;11.682;2022-10-26T09:05:13;14.80;99.90
21473;DHT22;10898;48.072;11.682;2022-10-26T09:09:20;14.90;99.90
21473;DHT22;10898;48.072;11.682;2022-10-26T09:15:45;15.20;99.90
21473;DHT22;10898;48.072;11.682;2022-10-26T09:20:13;15.40;99.90
21473;DHT22;10898;48.072;11.682;2022-10-26T09:22:32;15.50;99.90
21473;DHT22;10898;48.072;11.682;2022-10-26T09:24:38;15.60;99.90
21473;DHT22;10898;48.072;11.682;2022-10-26T09:28:43;15.80;99.90
21473;DHT22;10898;48.072;11.682;2022-10-26T09:30:46;15.90;99.90
21473;DHT22;10898;48.072;11.682;2022-10-26T09:32:49;15.90;99.90
21473;DHT22;10898;48.072;11.682;2022-10-26T09:34:52;16.00;99.90
21473;DHT22;10898;48.072;11.682;2022-10-26T09:36:55;16.10;99.90
21473;DHT22;10898;48.072;11.682;2022-10-26T09:39:00;16.20;99.90
21473;DHT22;10898;48.072;11.682;2022-10-26T09:41:05;16.30;99.90
21473;DHT22;10898;48.072;11.682;2022-10-26T09:43:17;16.40;99.90
21473;DHT22;10898;48.072;11.682;2022-10-26T09:45:22;16.40;99.90
21473;DHT22;10898;48.072;11.682;2022-10-26T09:47:35;16.60;99.90
21473;DHT22;10898;48.072;11.682;2022-10-26T09:49:48;16.70;99.90
21473;DHT22;10898;48.072;11.682;2022-10-26T09:51:51;16.80;99.90
21473;DHT22;10898;48.072;11.682;2022-10-26T09:53:53;17.00;99.90
21473;DHT22;10898;48.072;11.682;2022-10-26T09:56:06;17.10;99.90
21473;DHT22;10898;48.072;11.682;2022-10-26T09:58:12;17.20;99.90
21473;DHT22;10898;48.072;11.682;2022-10-26T10:00:15;17.30;99.90
21473;DHT22;10898;48.072;11.682;2022-10-26T10:02:33;17.30;99.90
21473;DHT22;10898;48.072;11.682;2022-10-26T10:04:35;17.40;99.90
21473;DHT22;10898;48.072;11.682;2022-10-26T10:06:46;17.60;99.90
21473;DHT22;10898;48.072;11.682;2022-10-26T10:09:03;17.70;99.90
21473;DHT22;10898;48.072;11.682;2022-10-26T10:11:11;17.70;99.90
21473;DHT22;10898;48.072;11.682;2022-10-26T10:13:19;17.80;99.90
21473;DHT22;10898;48.072;11.682;2022-10-26T10:15:22;17.80;99.90
21473;DHT22;10898;48.072;11.682;2022-10-26T10:17:24;17.90;99.90
21473;DHT22;10898;48.072;11.682;2022-10-26T10:21:38;17.90;99.90
21473;DHT22;10898;48.072;11.682;2022-10-26T10:23:49;18.00;99.90
21473;DHT22;10898;48.072;11.682;2022-10-26T10:25:59;18.00;99.90
21473;DHT22;10898;48.072;11.682;2022-10-26T10:28:01;17.90;99.90
21473;DHT22;10898;48.072;11.682;2022-10-26T10:30:18;18.00;99.90
21473;DHT22;10898;48.072;11.682;2022-10-26T10:32:21;18.00;99.90
21473;DHT22;10898;48.072;11.682;2022-10-26T10:34:24;18.00;99.90
21473;DHT22;10898;48.072;11.682;2022-10-26T10:36:27;18.00;99.90
21473;DHT22;10898;48.072;11.682;2022-10-26T10:38:36;18.10;99.90
21473;DHT22;10898;48.072;11.682;2022-10-26T10:40:38;18.20;99.90
21473;DHT22;10898;48.072;11.682;2022-10-26T10:42:40;18.20;99.90
21473;DHT22;10898;48.072;11.682;2022-10-26T10:44:43;18.10;99.90
21473;DHT22;10898;48.072;11.682;2022-10-26T10:46:45;18.30;99.90
21473;DHT22;10898;48.072;11.682;2022-10-26T10:48:50;18.30;99.90
21473;DHT22;10898;48.072;11.682;2022-10-26T10:50:56;18.40;99.90
21473;DHT22;10898;48.072;11.682;2022-10-26T10:53:13;18.40;99.90
21473;DHT22;10898;48.072;11.682;2022-10-26T10:55:16;18.40;99.90
21473;DHT22;10898;48.072;11.682;2022-10-26T10:59:51;18.50;99.90
21473;DHT22;10898;48.072;11.682;2022-10-26T11:02:23;18.50;99.90
21473;DHT22;10898;48.072;11.682;2022-10-26T11:06:26;18.50;99.90
21473;DHT22;10898;48.072;11.682;2022-10-26T11:08:45;18.50;99.90
21473;DHT22;10898;48.072;11.682;2022-10-26T11:13:17;18.50;99.90
21473;DHT22;10898;48.072;11.682;2022-10-26T11:15:21;18.60;99.90
21473;DHT22;10898;48.072;11.682;2022-10-26T11:17:28;18.50;99.90
21473;DHT22;10898;48.072;11.682;2022-10-26T11:19:36;18.60;99.90
21473;DHT22;10898;48.072;11.682;2022-10-26T11:21:42;18.60;99.90
21473;DHT22;10898;48.072;11.682;2022-10-26T11:23:48;18.70;99.90
21473;DHT22;10898;48.072;11.682;2022-10-26T11:25:59;18.70;99.90
21473;DHT22;10898;48.072;11.682;2022-10-26T11:28:09;18.70;99.90
21473;DHT22;10898;48.072;11.682;2022-10-26T11:30:12;18.80;99.90
21473;DHT22;10898;48.072;11.682;2022-10-26T11:32:18;18.70;99.90
21473;DHT22;10898;48.072;11.682;2022-10-26T11:36:41;18.80;99.90
21473;DHT22;10898;48.072;11.682;2022-10-26T11:45:22;18.90;99.90
21473;DHT22;10898;48.072;11.682;2022-10-26T11:47:33;18.90;99.90
21473;DHT22;10898;48.072;11.682;2022-10-26T11:53:49;19.00;99.90
21473;DHT22;10898;48.072;11.682;2022-10-26T11:55:52;19.00;99.90
21473;DHT22;10898;48.072;11.682;2022-10-26T11:57:54;18.80;99.90
21473;DHT22;10898;48.072;11.682;2022-10-26T12:00:05;19.00;99.90
21473;DHT22;10898;48.072;11.682;2022-10-26T12:02:14;19.00;99.90
21473;DHT22;10898;48.072;11.682;2022-10-26T12:04:18;18.90;99.90
21473;DHT22;10898;48.072;11.682;2022-10-26T12:06:24;19.00;99.90
21473;DHT22;10898;48.072;11.682;2022-10-26T12:08:30;18.90;99.90
21473;DHT22;10898;48.072;11.682;2022-10-26T12:10:36;19.00;99.90
21473;DHT22;10898;48.072;11.682;2022-10-26T12:12:47;18.90;99.90
21473;DHT22;10898;48.072;11.682;2022-10-26T12:14:54;18.90;99.90
21473;DHT22;10898;48.072;11.682;2022-10-26T12:19:32;18.80;99.90
21473;DHT22;10898;48.072;11.682;2022-10-26T12:21:32;18.80;99.90
21473;DHT22;10898;48.072;11.682;2022-10-26T12:23:38;18.70;99.90
21473;DHT22;10898;48.072;11.682;2022-10-26T12:26:17;18.70;99.90
21473;DHT22;10898;48.072;11.682;2022-10-26T12:30:35;18.70;99.90
21473;DHT22;10898;48.072;11.682;2022-10-26T12:36:49;18.70;99.90
21473;DHT22;10898;48.072;11.682;2022-10-26T12:38:54;18.70;99.90
21473;DHT22;10898;48.072;11.682;2022-10-26T12:45:19;18.80;99.90
21473;DHT22;10898;48.072;11.682;2022-10-26T12:51:51;18.80;99.90
21473;DHT22;10898;48.072;11.682;2022-10-26T12:56:13;18.90;99.90
21473;DHT22;10898;48.072;11.682;2022-10-26T13:00:40;19.00;99.90
21473;DHT22;10898;48.072;11.682;2022-10-26T13:06:58;19.10;99.90
21473;DHT22;10898;48.072;11.682;2022-10-26T13:09:19;19.10;99.90
21473;DHT22;10898;48.072;11.682;2022-10-26T13:11:31;19.20;99.90
21473;DHT22;10898;48.072;11.682;2022-10-26T13:13:35;19.20;99.90
21473;DHT22;10898;48.072;11.682;2022-10-26T13:15:50;19.20;99.90
21473;DHT22;10898;48.072;11.682;2022-10-26T13:18:00;19.30;99.90
21473;DHT22;10898;48.072;11.682;2022-10-26T13:20:03;19.30;99.90
21473;DHT22;10898;48.072;11.682;2022-10-26T13:22:11;19.30;99.90
21473;DHT22;10898;48.072;11.682;2022-10-26T13:24:13;19.30;99.90
21473;DHT22;10898;48.072;11.682;2022-10-26T13:26:17;19.30;99.90
21473;DHT22;10898;48.072;11.682;2022-10-26T13:32:35;19.40;99.90
21473;DHT22;10898;48.072;11.682;2022-10-26T13:34:37;19.40;99.90
21473;DHT22;10898;48.072;11.682;2022-10-26T13:38:45;19.40;99.90
21473;DHT22;10898;48.072;11.682;2022-10-26T13:40:47;19.30;99.90
21473;DHT22;10898;48.072;11.682;2022-10-26T13:42:52;19.30;99.90
21473;DHT22;10898;48.072;11.682;2022-10-26T13:44:56;19.30;99.90
21473;DHT22;10898;48.072;11.682;2022-10-26T13:47:01;19.30;99.90
21473;DHT22;10898;48.072;11.682;2022-10-26T13:49:16;19.30;99.90
21473;DHT22;10898;48.072;11.682;2022-10-26T13:51:24;19.30;99.90
21473;DHT22;10898;48.072;11.682;2022-10-26T13:55:28;19.20;99.90
21473;DHT22;10898;48.072;11.682;2022-10-26T13:57:32;19.20;99.90
21473;DHT22;10898;48.072;11.682;2022-10-26T13:59:36;19.20;99.90
21473;DHT22;10898;48.072;11.682;2022-10-26T14:01:39;19.20;99.90
21473;DHT22;10898;48.072;11.682;2022-10-26T14:03:41;19.20;99.90
21473;DHT22;10898;48.072;11.682;2022-10-26T14:05:43;19.20;99.90
21473;DHT22;10898;48.072;11.682;2022-10-26T14:07:53;19.20;99.90
21473;DHT22;10898;48.072;11.682;2022-10-26T14:09:57;19.10;99.90
21473;DHT22;10898;48.072;11.682;2022-10-26T14:11:59;19.10;99.90
21473;DHT22;10898;48.072;11.682;2022-10-26T14:14:02;19.20;99.90
21473;DHT22;10898;48.072;11.682;2022-10-26T14:16:06;19.10;99.90
21473;DHT22;10898;48.072;11.682;2022-10-26T14:18:16;19.20;99.90
21473;DHT22;10898;48.072;11.682;2022-10-26T14:20:19;19.20;99.90
21473;DHT22;10898;48.072;11.682;2022-10-26T14:22:22;19.20;99.90
21473;DHT22;10898;48.072;11.682;2022-10-26T14:24:32;19.20;99.90
21473;DHT22;10898;48.072;11.682;2022-10-26T14:26:48;19.20;99.90
21473;DHT22;10898;48.072;11.682;2022-10-26T14:28:51;19.20;99.90
21473;DHT22;10898;48.072;11.682;2022-10-26T14:30:53;19.20;99.90
21473;DHT22;10898;48.072;11.682;2022-10-26T14:32:55;19.30;99.90
21473;DHT22;10898;48.072;11.682;2022-10-26T14:34:57;19.20;99.90
21473;DHT22;10898;48.072;11.682;2022-10-26T14:37:00;19.20;99.90
21473;DHT22;10898;48.072;11.682;2022-10-26T14:39:05;19.20;99.90
21473;DHT22;10898;48.072;11.682;2022-10-26T14:41:07;19.20;99.90
21473;DHT22;10898;48.072;11.682;2022-10-26T14:43:15;19.20;99.90
21473;DHT22;10898;48.072;11.682;2022-10-26T14:47:39;19.10;99.90
21473;DHT22;10898;48.072;11.682;2022-10-26T14:49:45;19.10;99.90
21473;DHT22;10898;48.072;11.682;2022-10-26T14:51:47;19.10;99.90
21473;DHT22;10898;48.072;11.682;2022-10-26T14:53:50;19.10;99.90
21473;DHT22;10898;48.072;11.682;2022-10-26T14:55:51;19.00;99.90